Cambridgeport, VT (05141)

5:55 PM EDT on August 27, 2015 (GMT -0400)
Near Bartonsville | | Change Station
CLOSE
Current Station
Personal Weather Station
Location: Chester, VT
Elevation: 699 ft
Nearby Weather Stations

Elev 699 ft 43.23 °N, 72.56 °W | Updated 36 seconds ago

Mostly Cloudy
Mostly Cloudy
68.9 °F
Feels Like 68.9 °F
N
2.0
Wind Variable Wind from SSW
Gusts 2.5 mph

Today
High -- | Low -- °F
--% Chance of Precip.
Yesterday
High -- | Low -- °F
Precip. -- in
6:08 AM 7:34 PM
Waxing Gibbous, 95% visible
Pressure 30.01 in
Visibility 10.0 miles
Clouds Few 8000 ft
Dew Point 54 °F
Humidity 60%
Rainfall 0.00 in
Snow Depth Not available.
UV 1.0 out of 12
Pollen 8.10 out of 12
Air Quality Not available.
Flu Activity Not available.
METAR KVSF 272054Z AUTO 31009KT 10SM FEW080 23/11 A3001 RMK AO2 SLP163 T02330106 55004
Pressure 30.01 in
Visibility 10.0 miles
Clouds Few 8000 ft
Dew Point 54 °F
Humidity 60%
Rainfall 0.00 in
Snow Depth Not available.
UV 1.0 out of 12
Pollen 8.10 out of 12
Air Quality Not available.
Flu Activity Not available.
METAR KVSF 272054Z AUTO 31009KT 10SM FEW080 23/11 A3001 RMK AO2 SLP163 T02330106 55004

10-Day Weather Forecast

×

Almanac

Astronomy

Aug. 27, 2015 Rise Set
Actual Time
Civil Twilight
Nautical Twilight
Astronomical Twilight
Moon
Length of Visible Light
Length of Day
Tomorrow will be .
, % of the Moon is Illuminated

Today's Extremes

State Highs State Lows

Community

WunderPhotos

Upload Photos

1,850,238 photos uploaded!

WunderBlogs® & News

Nearby

Air Quality

  Air Quality AQ Index Pollutant
Not available.

Snow Depth

Station Depth Elevation

Earthquake Activity

City Distance Mag. Time & Date
Minimum magnitude displayed is 2.5.

Coastal Water Temperatures

Place Temperature

Stations

Nearby Weather Stations

Station Location Temp. Windchill Dew Point Humidity Wind Precip. Elev Updated Type